Time;durP1;ratioP1;P1;durP2;ratioP2;P2;SDS_P1;SDS_P2;PMS_P1;PMS_P2;Temp;Humidity;BMP_temperature;BMP_pressure;BME280_temperature;BME280_humidity;BME280_pressure;Samples;Min_cycle;Max_cycle;Signal;HPM_P1;HPM_P2
2021/05/01 00:00:29;;;;;;;20.90;11.85;;;461.70;1945.60;;;;;;5049647;28;20029;-82
2021/05/01 00:02:55;;;;;;;18.73;10.80;;;461.70;1971.20;;;;;;5051290;28;20056;-82
2021/05/01 00:05:20;;;;;;;19.00;10.48;;;461.70;1971.20;;;;;;5049448;28;20369;-82
2021/05/01 00:07:46;;;;;;;15.43;10.05;;;461.60;1996.80;;;;;;5054413;28;20069;-82
2021/05/01 00:10:12;;;;;;;15.57;10.00;;;461.50;1996.80;;;;;;5058600;28;20028;-82
2021/05/01 00:12:41;;;;;;;12.95;8.48;;;461.50;2022.40;;;;;;5059324;28;20422;-82
2021/05/01 00:15:09;;;;;;;15.13;9.38;;;461.40;2022.40;;;;;;5058044;28;20025;-82
2021/05/01 00:17:35;;;;;;;14.75;9.50;;;461.40;2022.40;;;;;;5066670;28;20037;-82
2021/05/01 00:20:01;;;;;;;16.70;8.57;;;461.30;2022.40;;;;;;5054796;28;20116;-82
2021/05/01 00:22:26;;;;;;;12.82;7.65;;;461.30;2048.00;;;;;;5056039;28;20025;-82
2021/05/01 00:24:52;;;;;;;16.17;9.55;;;461.10;2048.00;;;;;;5056401;28;20505;-81
2021/05/01 00:27:18;;;;;;;16.00;9.75;;;461.10;2073.60;;;;;;5056245;28;20112;-82
2021/05/01 00:29:43;;;;;;;12.38;8.20;;;461.10;2073.60;;;;;;5057732;28;20017;-82
2021/05/01 00:32:09;;;;;;;16.40;9.48;;;461.00;2073.60;;;;;;5054687;28;20487;-82
2021/05/01 00:34:35;;;;;;;14.68;8.20;;;461.00;2073.60;;;;;;5057683;28;20041;-83
2021/05/01 00:37:02;;;;;;;17.02;8.68;;;460.90;2073.60;;;;;;5057800;28;20053;-84
2021/05/01 00:39:28;;;;;;;10.95;7.38;;;460.90;2073.60;;;;;;5057903;28;20029;-84
2021/05/01 00:41:54;;;;;;;10.02;7.38;;;460.90;2099.20;;;;;;5058417;28;20078;-84
2021/05/01 00:44:19;;;;;;;13.80;7.80;;;460.90;2099.20;;;;;;5072454;28;20464;-83
2021/05/01 00:46:46;;;;;;;17.08;6.88;;;460.80;2099.20;;;;;;5058006;28;20031;-83
2021/05/01 00:49:12;;;;;;;12.05;7.55;;;460.80;2099.20;;;;;;5057914;28;20017;-83
2021/05/01 00:51:38;;;;;;;12.23;8.07;;;460.80;2099.20;;;;;;5056972;28;20075;-83
2021/05/01 00:54:04;;;;;;;9.95;7.03;;;460.80;2099.20;;;;;;5056445;28;20448;-83
2021/05/01 00:56:30;;;;;;;10.52;7.00;;;460.80;2099.20;;;;;;5073749;28;20476;-85
2021/05/01 00:58:56;;;;;;;11.38;7.50;;;460.80;2099.20;;;;;;5058348;28;20029;-84
2021/05/01 01:01:24;;;;;;;11.98;7.50;;;460.80;2124.80;;;;;;5058313;28;20475;-84
2021/05/01 01:03:50;;;;;;;14.48;7.05;;;460.80;2124.80;;;;;;5058757;28;20025;-83
2021/05/01 01:06:16;;;;;;;12.13;7.18;;;460.80;2099.20;;;;;;5057415;28;20503;-83
2021/05/01 01:08:43;;;;;;;12.88;8.23;;;460.80;2124.80;;;;;;5058337;28;20151;-83
2021/05/01 01:11:10;;;;;;;18.05;8.35;;;460.80;2124.80;;;;;;5056049;28;20098;-83
2021/05/01 01:13:36;;;;;;;12.27;7.43;;;460.80;2124.80;;;;;;5057842;28;20028;-82
2021/05/01 01:16:04;;;;;;;12.07;7.45;;;460.80;2124.80;;;;;;5057606;28;20024;-81
2021/05/01 01:18:30;;;;;;;12.68;8.70;;;436.10;2124.80;;;;;;5055018;28;20021;-81
2021/05/01 01:20:58;;;;;;;17.02;8.52;;;436.10;2124.80;;;;;;5052654;28;20107;-82
2021/05/01 01:23:23;;;;;;;15.55;8.32;;;436.00;2124.80;;;;;;5049777;28;20021;-82
2021/05/01 01:25:49;;;;;;;16.70;8.75;;;436.00;2124.80;;;;;;5052579;28;20040;-83
2021/05/01 01:28:15;;;;;;;22.98;9.13;;;436.00;2150.40;;;;;;5054113;28;20025;-82
2021/05/01 01:30:41;;;;;;;14.25;7.93;;;436.00;2150.40;;;;;;5061968;28;20037;-84
2021/05/01 01:33:09;;;;;;;14.27;8.45;;;436.10;2150.40;;;;;;5053764;28;20127;-83
2021/05/01 01:35:36;;;;;;;14.77;9.15;;;436.00;2150.40;;;;;;5053790;28;20021;-83
2021/05/01 01:38:02;;;;;;;18.08;9.77;;;436.00;2150.40;;;;;;5057335;28;20028;-83
2021/05/01 01:40:28;;;;;;;14.73;8.73;;;436.00;2150.40;;;;;;5053519;28;20045;-82
2021/05/01 01:42:54;;;;;;;12.10;8.38;;;436.00;2176.00;;;;;;5062136;28;20067;-82
2021/05/01 01:45:23;;;;;;;14.10;9.20;;;436.00;2150.40;;;;;;5053486;28;20025;-83
2021/05/01 01:47:48;;;;;;;12.07;8.45;;;436.00;2150.40;;;;;;5052098;28;20025;-83
2021/05/01 01:50:17;;;;;;;15.52;8.55;;;436.10;2150.40;;;;;;5053205;28;20070;-83
2021/05/01 01:52:44;;;;;;;16.17;9.45;;;436.10;2150.40;;;;;;5052168;28;20495;-84
2021/05/01 01:55:12;;;;;;;16.77;8.10;;;436.10;2150.40;;;;;;5052522;28;20032;-83
2021/05/01 01:57:38;;;;;;;13.85;8.52;;;436.10;2150.40;;;;;;5052873;28;20100;-82
2021/05/01 02:00:16;;;;;;;14.90;8.93;;;436.10;2150.40;;;;;;5052153;28;20108;-82
2021/05/01 02:02:43;;;;;;;14.43;7.97;;;460.80;2176.00;;;;;;5052433;28;20021;-82
2021/05/01 02:05:10;;;;;;;14.18;8.93;;;460.90;2176.00;;;;;;5061511;28;20119;-82
2021/05/01 02:07:36;;;;;;;12.43;8.80;;;460.80;2176.00;;;;;;5051400;28;20094;-82
2021/05/01 02:10:04;;;;;;;17.23;9.88;;;460.80;2176.00;;;;;;5051909;28;20033;-82
2021/05/01 02:12:30;;;;;;;15.98;9.07;;;436.10;2176.00;;;;;;5052533;28;20484;-83
2021/05/01 02:14:56;;;;;;;14.45;8.32;;;436.00;2176.00;;;;;;5052240;28;20032;-82
2021/05/01 02:17:22;;;;;;;15.13;9.50;;;436.00;2176.00;;;;;;5053450;28;20025;-81
2021/05/01 02:19:47;;;;;;;15.43;10.20;;;436.00;2176.00;;;;;;5068850;28;20029;-82
2021/05/01 02:22:13;;;;;;;15.02;9.35;;;435.90;2176.00;;;;;;5062043;28;20364;-82
2021/05/01 02:24:39;;;;;;;14.95;9.70;;;435.90;2201.60;;;;;;5053149;28;20033;-84
2021/05/01 02:27:05;;;;;;;14.35;9.60;;;435.90;2201.60;;;;;;5051771;28;20025;-83
2021/05/01 02:29:31;;;;;;;16.20;9.00;;;435.90;2201.60;;;;;;5061858;28;20061;-83
2021/05/01 02:31:56;;;;;;;15.75;8.85;;;435.90;2201.60;;;;;;5051537;28;20077;-82
2021/05/01 02:34:22;;;;;;;16.48;9.45;;;435.90;2201.60;;;;;;5050813;28;20037;-83
2021/05/01 02:36:48;;;;;;;19.33;9.77;;;435.80;2227.20;;;;;;5051055;28;20029;-82
2021/05/01 02:39:14;;;;;;;16.58;9.27;;;435.70;2227.20;;;;;;5060421;28;20483;-81
2021/05/01 02:41:39;;;;;;;14.75;9.27;;;435.70;2227.20;;;;;;5051483;28;20029;-83
2021/05/01 02:44:05;;;;;;;13.00;9.43;;;435.60;2252.80;;;;;;5052235;28;20031;-82
2021/05/01 02:46:31;;;;;;;17.95;9.80;;;435.60;2252.80;;;;;;5051042;28;20047;-83
2021/05/01 02:48:57;;;;;;;15.63;8.60;;;435.50;2252.80;;;;;;5051875;28;20036;-83
2021/05/01 02:51:23;;;;;;;14.32;10.27;;;435.50;2252.80;;;;;;5050526;28;20075;-83
2021/05/01 02:53:49;;;;;;;14.98;8.48;;;435.50;2278.40;;;;;;5051953;28;20029;-83
2021/05/01 02:56:15;;;;;;;15.38;10.05;;;435.40;2278.40;;;;;;5051628;28;20036;-83
2021/05/01 02:58:40;;;;;;;14.38;8.77;;;435.30;2304.00;;;;;;5051997;28;20506;-83
2021/05/01 03:01:06;;;;;;;12.98;8.25;;;435.30;2304.00;;;;;;5051126;28;20032;-82
2021/05/01 03:03:32;;;;;;;19.42;10.00;;;435.30;2304.00;;;;;;5051580;28;20100;-83
2021/05/01 03:05:58;;;;;;;16.35;9.95;;;435.40;2304.00;;;;;;5050789;28;20037;-82
2021/05/01 03:08:23;;;;;;;17.23;8.93;;;435.40;2304.00;;;;;;5052064;28;20059;-81
2021/05/01 03:10:49;;;;;;;14.02;8.90;;;435.40;2304.00;;;;;;5064441;28;20032;-83
2021/05/01 03:13:15;;;;;;;16.02;8.63;;;435.30;2329.60;;;;;;5058646;28;20033;-82
2021/05/01 03:15:41;;;;;;;19.17;9.02;;;435.20;2329.60;;;;;;5051832;28;20042;-83
2021/05/01 03:18:06;;;;;;;14.07;8.63;;;435.20;2329.60;;;;;;5064039;28;20116;-82
2021/05/01 03:20:33;;;;;;;13.38;8.90;;;435.20;2329.60;;;;;;5052088;28;20053;-81
2021/05/01 03:23:00;;;;;;;14.77;8.82;;;435.20;2329.60;;;;;;5051364;28;20021;-81
2021/05/01 03:25:26;;;;;;;18.58;9.75;;;435.20;2329.60;;;;;;5052821;28;20025;-80
2021/05/01 03:27:52;;;;;;;11.85;7.00;;;435.20;2329.60;;;;;;5051833;28;20048;-83
2021/05/01 03:30:18;;;;;;;13.15;7.93;;;435.30;2329.60;;;;;;5050714;28;20029;-82
2021/05/01 03:32:44;;;;;;;13.77;8.77;;;435.20;2329.60;;;;;;5050692;28;20041;-81
2021/05/01 03:35:12;;;;;;;12.05;7.07;;;435.50;2329.60;;;;;;5052849;28;20036;-83
2021/05/01 03:37:38;;;;;;;13.88;7.68;;;435.40;2304.00;;;;;;5052006;28;20491;-80
2021/05/01 03:40:07;;;;;;;13.15;7.45;;;435.40;2304.00;;;;;;5050565;28;20103;-78
2021/05/01 03:42:33;;;;;;;14.70;8.00;;;435.40;2304.00;;;;;;5049530;28;20036;-78
2021/05/01 03:44:59;;;;;;;15.63;7.80;;;435.40;2304.00;;;;;;5051970;28;20036;-81
2021/05/01 03:47:24;;;;;;;12.07;6.93;;;435.40;2329.60;;;;;;5051538;28;20396;-82
2021/05/01 03:49:50;;;;;;;10.32;6.70;;;435.40;2329.60;;;;;;5052340;28;20032;-81
2021/05/01 03:52:16;;;;;;;13.00;7.18;;;435.30;2329.60;;;;;;5051830;28;20102;-81
2021/05/01 03:54:42;;;;;;;11.75;7.55;;;435.40;2329.60;;;;;;5050995;28;20051;-81
2021/05/01 03:57:07;;;;;;;9.20;6.10;;;435.40;2329.60;;;;;;5048790;28;20056;-81
2021/05/01 03:59:33;;;;;;;9.90;6.72;;;435.40;2329.60;;;;;;5051117;28;20866;-81
2021/05/01 04:01:59;;;;;;;11.20;6.88;;;435.40;2329.60;;;;;;5051591;28;20033;-81
2021/05/01 04:04:27;;;;;;;11.48;7.65;;;435.40;2329.60;;;;;;5050410;28;20051;-81
2021/05/01 04:06:52;;;;;;;14.40;7.65;;;435.40;2329.60;;;;;;5055663;28;20021;-81
2021/05/01 04:09:18;;;;;;;10.27;7.10;;;435.50;2329.60;;;;;;5050215;28;20590;-80
2021/05/01 04:11:44;;;;;;;12.05;7.85;;;435.50;2304.00;;;;;;5051730;28;20480;-81
2021/05/01 04:14:10;;;;;;;12.38;7.10;;;435.50;2329.60;;;;;;5050873;28;20482;-81
2021/05/01 04:16:36;;;;;;;15.88;7.05;;;435.50;2329.60;;;;;;5049698;28;20025;-82
2021/05/01 04:19:02;;;;;;;10.25;7.22;;;435.40;2329.60;;;;;;5049804;28;20040;-82
2021/05/01 04:21:27;;;;;;;13.05;8.05;;;435.50;2329.60;;;;;;5049718;28;20028;-81
2021/05/01 04:23:53;;;;;;;12.70;7.88;;;435.50;2329.60;;;;;;5049996;28;20037;-82
2021/05/01 04:26:20;;;;;;;11.45;7.43;;;435.50;2329.60;;;;;;5049572;28;20023;-81
2021/05/01 04:28:51;;;;;;;10.77;7.07;;;435.60;2329.60;;;;;;5049718;28;20029;-82
2021/05/01 04:31:17;;;;;;;9.98;6.95;;;435.50;2329.60;;;;;;5050940;28;20120;-81
2021/05/01 04:33:43;;;;;;;11.82;7.05;;;435.50;2329.60;;;;;;5065608;28;20135;-81
2021/05/01 04:36:09;;;;;;;14.57;10.02;;;435.50;2329.60;;;;;;5051745;28;20021;-80
2021/05/01 04:38:34;;;;;;;11.82;7.68;;;435.40;2355.20;;;;;;5050928;28;20498;-81
2021/05/01 04:41:00;;;;;;;14.15;7.90;;;435.20;2355.20;;;;;;5051702;28;20053;-82
2021/05/01 04:43:26;;;;;;;12.45;10.00;;;435.40;2355.20;;;;;;5050849;28;20028;-82
2021/05/01 04:45:54;;;;;;;14.57;10.68;;;435.40;2355.20;;;;;;5050772;28;20107;-83
2021/05/01 04:48:19;;;;;;;12.25;7.45;;;435.50;2355.20;;;;;;5049957;28;20033;-82
2021/05/01 04:50:49;;;;;;;14.05;6.57;;;435.60;2329.60;;;;;;5051042;28;20028;-82
2021/05/01 04:53:14;;;;;;;9.75;5.97;;;435.70;2329.60;;;;;;5052004;28;20747;-82
2021/05/01 04:55:40;;;;;;;10.45;6.68;;;435.70;2329.60;;;;;;5054493;28;20069;-81
2021/05/01 04:58:06;;;;;;;11.80;9.10;;;435.50;2355.20;;;;;;5053800;28;20495;-82
2021/05/01 05:00:31;;;;;;;10.60;6.32;;;435.50;2355.20;;;;;;5055519;28;20510;-83
2021/05/01 05:02:57;;;;;;;9.40;6.50;;;435.70;2329.60;;;;;;5055544;28;20036;-83
2021/05/01 05:05:23;;;;;;;9.38;6.10;;;435.90;2304.00;;;;;;5055622;28;20033;-83
2021/05/01 05:07:48;;;;;;;9.85;5.53;;;436.10;2278.40;;;;;;5061846;28;20760;-82
2021/05/01 05:10:15;;;;;;;13.40;6.25;;;460.80;2278.40;;;;;;5055539;28;20472;-83
2021/05/01 05:12:42;;;;;;;8.48;5.55;;;461.00;2252.80;;;;;;5054132;28;20029;-83
2021/05/01 05:15:09;;;;;;;9.43;6.13;;;461.10;2227.20;;;;;;5053847;28;20029;-83
2021/05/01 05:17:36;;;;;;;10.32;6.35;;;461.10;2227.20;;;;;;5054813;28;20017;-83
2021/05/01 05:20:03;;;;;;;15.48;7.85;;;461.20;2227.20;;;;;;5055293;28;20025;-83
2021/05/01 05:22:29;;;;;;;14.48;8.25;;;461.40;2201.60;;;;;;5054017;28;20103;-83
2021/05/01 05:24:55;;;;;;;11.60;6.55;;;461.40;2201.60;;;;;;5053365;28;20113;-83
2021/05/01 05:27:20;;;;;;;17.58;6.07;;;461.50;2201.60;;;;;;5053246;28;20037;-82
2021/05/01 05:29:50;;;;;;;9.25;6.13;;;461.70;2176.00;;;;;;5053458;28;20036;-81
2021/05/01 05:32:18;;;;;;;10.00;6.05;;;461.70;2150.40;;;;;;5053630;28;20106;-82
2021/05/01 05:34:44;;;;;;;10.80;6.53;;;486.60;2124.80;;;;;;5053362;28;20036;-83
2021/05/01 05:37:10;;;;;;;11.20;5.97;;;486.70;2124.80;;;;;;5053536;28;20052;-83
2021/05/01 05:39:35;;;;;;;13.43;6.65;;;486.90;2099.20;;;;;;5053368;28;20021;-83
2021/05/01 05:42:07;;;;;;;10.00;6.40;;;487.10;2073.60;;;;;;5054589;28;20029;-83
2021/05/01 05:44:34;;;;;;;7.65;5.72;;;487.30;2073.60;;;;;;5053546;28;20020;-83
2021/05/01 05:47:00;;;;;;;15.93;6.80;;;512.00;2073.60;;;;;;5053316;28;20099;-81
2021/05/01 05:49:26;;;;;;;16.40;7.03;;;512.20;2048.00;;;;;;5052948;28;20025;-80
2021/05/01 05:51:52;;;;;;;17.75;8.05;;;512.20;2048.00;;;;;;5053550;28;20025;-81
2021/05/01 05:54:17;;;;;;;10.25;6.85;;;512.40;2022.40;;;;;;5054751;28;20096;-82
2021/05/01 05:56:43;;;;;;;14.35;6.30;;;512.40;2022.40;;;;;;5052955;28;20123;-81
2021/05/01 05:59:09;;;;;;;8.50;5.20;;;512.50;2022.40;;;;;;5052328;28;20107;-81
2021/05/01 06:01:39;;;;;;;12.18;6.25;;;512.60;1996.80;;;;;;5053864;28;20041;-81
2021/05/01 06:04:10;;;;;;;8.35;5.35;;;512.70;1996.80;;;;;;5062737;28;20097;-82
2021/05/01 06:06:42;;;;;;;13.48;6.35;;;512.80;1971.20;;;;;;5064076;28;20092;-81
2021/05/01 06:09:08;;;;;;;10.13;5.38;;;512.90;1971.20;;;;;;5052629;28;20032;-81
2021/05/01 06:11:34;;;;;;;8.85;5.85;;;537.60;1996.80;;;;;;5052719;28;20094;-82
2021/05/01 06:14:03;;;;;;;10.43;5.65;;;537.70;1971.20;;;;;;5052781;28;20463;-82
2021/05/01 06:16:31;;;;;;;11.13;5.55;;;537.70;1945.60;;;;;;5044534;28;20025;-82
2021/05/01 06:18:58;;;;;;;8.45;5.50;;;537.90;1945.60;;;;;;5055085;28;20289;-81
2021/05/01 06:21:25;;;;;;;13.60;6.55;;;538.00;1945.60;;;;;;5057110;28;20021;-80
2021/05/01 06:23:51;;;;;;;9.95;7.15;;;538.10;1945.60;;;;;;5052316;28;20070;-82
2021/05/01 06:26:18;;;;;;;10.10;5.72;;;538.30;1920.00;;;;;;5052832;28;20107;-81
2021/05/01 06:28:45;;;;;;;14.02;5.70;;;538.30;1920.00;;;;;;5052932;28;20075;-82
2021/05/01 06:31:10;;;;;;;11.38;6.68;;;538.30;1920.00;;;;;;5052385;28;20045;-83
2021/05/01 06:33:41;;;;;;;10.50;6.28;;;538.50;1920.00;;;;;;5053824;28;20033;-82
2021/05/01 06:36:09;;;;;;;9.30;6.40;;;563.40;1920.00;;;;;;5052096;28;20036;-80
2021/05/01 06:38:35;;;;;;;11.15;7.63;;;563.60;1920.00;;;;;;5063751;28;20394;-82
2021/05/01 06:41:07;;;;;;;13.57;8.50;;;563.80;1894.40;;;;;;5067640;28;20105;-82
2021/05/01 06:44:03;;;;;;;11.48;7.22;;;564.10;1868.80;;;;;;5053272;28;20120;-81
2021/05/01 06:46:32;;;;;;;11.13;7.57;;;588.80;1868.80;;;;;;5053139;28;20025;-82
2021/05/01 06:49:02;;;;;;;11.23;6.97;;;588.80;1843.20;;;;;;5079242;28;20098;-82
2021/05/01 06:51:29;;;;;;;12.20;6.80;;;589.00;1817.60;;;;;;5051720;28;20443;-81
2021/05/01 06:54:00;;;;;;;10.88;6.95;;;589.10;1817.60;;;;;;5054281;28;20104;-80
2021/05/01 06:56:27;;;;;;;9.40;5.75;;;589.20;1792.00;;;;;;5057852;28;20353;-81
2021/05/01 06:58:59;;;;;;;12.13;6.53;;;589.40;1766.40;;;;;;5052111;28;20538;-82
2021/05/01 07:01:25;;;;;;;10.68;6.55;;;589.60;1766.40;;;;;;5039511;28;20025;-81
2021/05/01 07:03:51;;;;;;;9.38;6.72;;;589.70;1740.80;;;;;;5051715;28;20036;-82
2021/05/01 07:06:18;;;;;;;8.85;5.88;;;614.40;1740.80;;;;;;5053086;28;20025;-82
2021/05/01 07:08:44;;;;;;;12.05;6.00;;;614.70;1715.20;;;;;;5051443;28;20091;-81
2021/05/01 07:11:12;;;;;;;13.68;8.02;;;614.70;1715.20;;;;;;5052788;28;20037;-80
2021/05/01 07:13:39;;;;;;;13.10;7.38;;;614.80;1689.60;;;;;;5052619;28;20107;-81
2021/05/01 07:16:09;;;;;;;11.52;6.47;;;615.10;1689.60;;;;;;5050477;28;20074;-80
2021/05/01 07:18:40;;;;;;;9.52;5.88;;;615.30;1664.00;;;;;;5062178;28;20021;-82
2021/05/01 07:21:07;;;;;;;8.23;5.55;;;615.20;1664.00;;;;;;5051268;28;20036;-81
2021/05/01 07:23:33;;;;;;;10.52;5.80;;;640.00;1638.40;;;;;;5051108;28;20025;-81
2021/05/01 07:25:59;;;;;;;10.70;5.90;;;640.00;1638.40;;;;;;5051009;28;20476;-81
2021/05/01 07:28:26;;;;;;;9.82;6.28;;;640.30;1612.80;;;;;;5051273;28;20058;-81
2021/05/01 07:30:55;;;;;;;9.73;5.80;;;640.30;1612.80;;;;;;5050466;28;20037;-82
2021/05/01 07:33:25;;;;;;;9.50;5.65;;;640.50;1587.20;;;;;;5052560;28;20128;-81
2021/05/01 07:35:55;;;;;;;8.55;5.70;;;640.70;1561.60;;;;;;5051179;28;20128;-81
2021/05/01 07:38:23;;;;;;;9.45;5.30;;;640.80;1561.60;;;;;;5050900;28;20090;-81
2021/05/01 07:40:54;;;;;;;9.55;5.20;;;665.60;1587.20;;;;;;5051248;28;20028;-81
2021/05/01 07:43:21;;;;;;;9.35;5.72;;;666.20;1536.00;;;;;;5052121;28;20104;-83
2021/05/01 07:45:52;;;;;;;11.10;5.80;;;666.30;1510.40;;;;;;5052646;28;20055;-85
2021/05/01 07:48:19;;;;;;;9.00;6.88;;;691.50;1484.80;;;;;;5042097;28;20021;-84
2021/05/01 07:50:47;;;;;;;9.43;5.88;;;691.80;1408.00;;;;;;5047132;28;20499;-83
2021/05/01 07:53:13;;;;;;;8.45;5.30;;;692.00;1408.00;;;;;;5069654;28;20365;-83
2021/05/01 07:55:40;;;;;;;10.45;5.07;;;716.80;1408.00;;;;;;5049545;28;20058;-84
2021/05/01 07:58:06;;;;;;;7.15;4.40;;;716.80;1356.80;;;;;;5051727;28;20088;-82
2021/05/01 08:00:32;;;;;;;9.85;5.55;;;716.90;1305.60;;;;;;5067036;28;20502;-81
2021/05/01 08:03:00;;;;;;;10.63;4.97;;;716.80;1305.60;;;;;;5041563;28;20045;-81
2021/05/01 08:05:25;;;;;;;13.73;6.95;;;717.30;1305.60;;;;;;5049756;28;20083;-82
2021/05/01 08:07:52;;;;;;;11.07;6.35;;;717.60;1254.40;;;;;;5043964;28;20032;-81
2021/05/01 08:10:18;;;;;;;9.38;4.93;;;742.60;1280.00;;;;;;5044457;28;20439;-81
2021/05/01 08:12:44;;;;;;;10.48;4.45;;;742.70;1254.40;;;;;;5050674;28;20044;-81
2021/05/01 08:15:10;;;;;;;11.00;4.45;;;742.70;1254.40;;;;;;5051370;28;20040;-82
2021/05/01 08:17:36;;;;;;;9.68;4.97;;;742.90;1177.60;;;;;;5069685;28;20033;-81
2021/05/01 08:20:03;;;;;;;6.68;4.15;;;743.00;1177.60;;;;;;5067020;28;20108;-83
2021/05/01 08:22:29;;;;;;;8.73;5.82;;;743.00;1177.60;;;;;;5051452;28;20078;-81
2021/05/01 08:24:55;;;;;;;8.45;4.30;;;743.10;1177.60;;;;;;5045149;28;20033;-81
2021/05/01 08:27:20;;;;;;;10.98;6.90;;;743.20;1177.60;;;;;;5050067;28;20028;-81
2021/05/01 08:29:46;;;;;;;14.00;7.70;;;768.10;1152.00;;;;;;5054267;28;20808;-81
2021/05/01 08:32:14;;;;;;;12.50;7.07;;;768.20;1152.00;;;;;;5055232;28;20152;-82
2021/05/01 08:34:40;;;;;;;16.58;7.28;;;768.20;1152.00;;;;;;5048669;28;20741;-81
2021/05/01 08:37:06;;;;;;;9.85;4.72;;;768.30;1152.00;;;;;;5050048;28;20037;-82
2021/05/01 08:39:32;;;;;;;8.32;4.03;;;768.70;1075.20;;;;;;5055276;28;20033;-81
2021/05/01 08:41:57;;;;;;;11.13;4.68;;;768.40;1075.20;;;;;;5055095;28;20033;-81
2021/05/01 08:44:23;;;;;;;12.25;5.03;;;768.60;1049.60;;;;;;5053635;28;20394;-81
2021/05/01 08:46:49;;;;;;;18.05;10.93;;;793.70;1100.80;;;;;;5055710;28;20403;-81
2021/05/01 08:49:15;;;;;;;9.57;4.68;;;793.80;1075.20;;;;;;5045591;28;20068;-79
2021/05/01 08:51:43;;;;;;;7.68;4.45;;;793.60;1100.80;;;;;;5057661;28;20383;-80
2021/05/01 08:54:13;;;;;;;12.15;5.07;;;794.10;1049.60;;;;;;5055159;28;20071;-79
2021/05/01 08:56:43;;;;;;;11.55;8.25;;;793.90;1075.20;;;;;;5046512;28;20039;-81
2021/05/01 08:59:09;;;;;;;8.07;4.95;;;794.40;1075.20;;;;;;5043448;28;20079;-80
2021/05/01 09:01:37;;;;;;;11.52;4.22;;;819.40;1049.60;;;;;;5051685;28;20029;-83
2021/05/01 09:04:05;;;;;;;8.57;6.10;;;819.80;1024.00;;;;;;5047019;28;20025;-79
2021/05/01 09:06:32;;;;;;;13.15;7.57;;;819.90;998.40;;;;;;5053219;28;20067;-80
2021/05/01 09:08:59;;;;;;;10.43;5.78;;;844.80;998.40;;;;;;5073721;28;20037;-80
2021/05/01 09:11:35;;;;;;;8.05;4.20;;;844.90;998.40;;;;;;5045598;28;20056;-80
2021/05/01 09:14:21;;;;;;;6.40;4.18;;;820.00;947.20;;;;;;5067328;28;20028;-81
2021/05/01 09:16:58;;;;;;;13.50;7.00;;;845.00;972.80;;;;;;5055203;28;20025;-80
2021/05/01 09:19:36;;;;;;;10.00;4.47;;;845.10;972.80;;;;;;5055720;28;20017;-81
2021/05/01 09:22:13;;;;;;;8.98;5.10;;;845.70;947.20;;;;;;5071697;28;20043;-84
2021/05/01 09:24:42;;;;;;;16.25;7.90;;;845.50;947.20;;;;;;5055769;28;20029;-84
2021/05/01 09:27:08;;;;;;;11.13;5.88;;;845.60;947.20;;;;;;5051581;28;20055;-84
2021/05/01 09:29:38;;;;;;;8.20;5.43;;;845.40;947.20;;;;;;5044494;28;20057;-84
2021/05/01 09:32:06;;;;;;;13.77;6.18;;;845.70;947.20;;;;;;5053224;28;20044;-84
2021/05/01 09:34:40;;;;;;;8.88;5.07;;;870.60;947.20;;;;;;5054307;28;20047;-84
2021/05/01 09:37:07;;;;;;;10.63;5.45;;;871.10;896.00;;;;;;5053709;28;20028;-80
2021/05/01 09:39:33;;;;;;;9.85;5.07;;;896.00;870.40;;;;;;5053992;28;20070;-84
2021/05/01 09:42:12;;;;;;;11.73;4.78;;;896.10;844.80;;;;;;5054938;28;20029;-83
2021/05/01 09:44:38;;;;;;;8.93;5.32;;;896.40;844.80;;;;;;5052147;28;20032;-83
2021/05/01 09:47:12;;;;;;;10.77;5.45;;;896.60;844.80;;;;;;5049705;28;20025;-82
2021/05/01 09:49:38;;;;;;;9.10;4.38;;;896.40;870.40;;;;;;5065805;28;20025;-83
2021/05/01 09:52:09;;;;;;;7.90;4.72;;;896.60;844.80;;;;;;5053856;28;20017;-83
2021/05/01 09:54:52;;;;;;;10.88;4.57;;;896.70;844.80;;;;;;5055234;28;20032;-83
2021/05/01 09:57:20;;;;;;;8.13;4.25;;;896.70;819.20;;;;;;5047913;28;20078;-83
2021/05/01 09:59:47;;;;;;;8.65;4.82;;;921.80;793.60;;;;;;5054288;28;20483;-82
2021/05/01 10:02:14;;;;;;;9.55;5.78;;;896.20;819.20;;;;;;5073052;28;20027;-80
2021/05/01 10:04:41;;;;;;;9.52;4.55;;;896.10;793.60;;;;;;5053155;28;20040;-81
2021/05/01 10:07:11;;;;;;;8.65;4.25;;;896.50;793.60;;;;;;5050907;28;20029;-80
2021/05/01 10:09:39;;;;;;;8.60;4.68;;;896.80;793.60;;;;;;5049570;28;20407;-83
2021/05/01 10:12:11;;;;;;;8.43;4.05;;;921.90;793.60;;;;;;5052162;28;20024;-84
2021/05/01 10:14:49;;;;;;;6.82;4.25;;;922.10;768.00;;;;;;5052478;28;20031;-81
2021/05/01 10:17:21;;;;;;;9.85;4.68;;;922.50;768.00;;;;;;5054489;28;20476;-82
2021/05/01 10:20:00;;;;;;;6.82;4.28;;;947.90;716.80;;;;;;5054059;28;20020;-83
2021/05/01 10:22:39;;;;;;;12.13;5.07;;;948.00;716.80;;;;;;5049755;28;20024;-83
2021/05/01 10:25:08;;;;;;;8.80;5.07;;;947.70;742.40;;;;;;5054889;28;20101;-83
2021/05/01 10:27:59;;;;;;;9.13;4.43;;;947.80;742.40;;;;;;5052396;28;20025;-85
2021/05/01 10:30:37;;;;;;;14.70;4.60;;;922.20;768.00;;;;;;5056136;28;20044;-83
2021/05/01 10:33:23;;;;;;;6.53;4.65;;;871.30;819.20;;;;;;5045290;28;20053;-83
2021/05/01 10:36:04;;;;;;;12.07;7.95;;;896.30;793.60;;;;;;5055736;28;20056;-82
2021/05/01 10:38:31;;;;;;;15.55;6.53;;;896.80;768.00;;;;;;5063770;28;20025;-82
2021/05/01 10:41:06;;;;;;;12.88;6.57;;;921.80;768.00;;;;;;5052590;28;20090;-83
2021/05/01 10:43:35;;;;;;;8.15;4.57;;;922.00;768.00;;;;;;5051334;28;20844;-81
2021/05/01 10:46:07;;;;;;;8.20;4.95;;;947.20;742.40;;;;;;5053941;28;20033;-84
2021/05/01 10:48:46;;;;;;;11.63;5.13;;;922.30;742.40;;;;;;5052397;28;20078;-81
2021/05/01 10:51:17;;;;;;;14.63;6.00;;;947.70;716.80;;;;;;5046207;28;20029;-83
2021/05/01 10:53:43;;;;;;;14.07;6.75;;;947.90;691.20;;;;;;5058196;28;20028;-82
2021/05/01 10:56:10;;;;;;;10.13;6.40;;;998.40;665.60;;;;;;5051032;28;20029;-82
2021/05/01 10:58:39;;;;;;;13.73;5.30;;;973.10;665.60;;;;;;5052711;28;20048;-83
2021/05/01 11:01:07;;;;;;;16.95;7.20;;;947.80;665.60;;;;;;5053147;28;20155;-82
2021/05/01 11:03:42;;;;;;;9.35;4.88;;;947.30;691.20;;;;;;5053882;28;20104;-85
2021/05/01 11:06:14;;;;;;;20.20;17.05;;;922.50;691.20;;;;;;5054347;28;20094;-81
2021/05/01 11:08:41;;;;;;;21.85;16.83;;;972.90;665.60;;;;;;5049722;28;20063;-83
2021/05/01 11:11:12;;;;;;;18.95;14.25;;;973.20;665.60;;;;;;5067989;28;20052;-83
2021/05/01 11:13:41;;;;;;;17.23;9.80;;;922.40;691.20;;;;;;5049823;28;20032;-83
2021/05/01 11:16:09;;;;;;;804.90;728.42;;;921.70;742.40;;;;;;5052660;28;20075;-82
2021/05/01 11:18:39;;;;;;;396.50;355.83;;;896.80;691.20;;;;;;5053168;28;20070;-83
2021/05/01 11:21:10;;;;;;;1761.93;999.90;;;896.20;716.80;;;;;;5052030;28;20433;-81
2021/05/01 11:23:37;;;;;;;389.67;316.10;;;896.50;716.80;;;;;;5048865;28;20036;-82
2021/05/01 11:26:07;;;;;;;567.15;323.77;;;896.40;716.80;;;;;;5068149;28;20025;-83
2021/05/01 11:28:35;;;;;;;146.65;130.10;;;896.50;716.80;;;;;;5052872;28;20096;-82
2021/05/01 11:31:02;;;;;;;772.20;646.50;;;896.40;716.80;;;;;;5052452;28;20028;-82
2021/05/01 11:33:28;;;;;;;1642.32;974.63;;;896.40;742.40;;;;;;5041958;28;20069;-81
2021/05/01 11:35:54;;;;;;;280.67;219.77;;;896.30;742.40;;;;;;5045050;28;20056;-84
2021/05/01 11:38:24;;;;;;;187.65;166.95;;;871.00;768.00;;;;;;5066545;28;20510;-80
2021/05/01 11:40:53;;;;;;;1025.90;867.20;;;870.60;768.00;;;;;;5053171;28;20531;-85
2021/05/01 11:43:24;;;;;;;962.20;808.13;;;870.70;793.60;;;;;;5043652;28;20021;-83
2021/05/01 11:46:10;;;;;;;49.53;44.15;;;871.30;793.60;;;;;;5058436;28;20468;-82
2021/05/01 11:48:43;;;;;;;220.10;197.88;;;870.70;768.00;;;;;;5051698;28;20361;-83
2021/05/01 11:51:14;;;;;;;42.63;36.75;;;871.30;768.00;;;;;;5051274;28;20074;-86
2021/05/01 11:53:48;;;;;;;34.50;21.73;;;871.30;768.00;;;;;;5071919;28;20037;-85
2021/05/01 11:56:36;;;;;;;27.95;17.90;;;896.10;768.00;;;;;;5050699;28;20082;-80
2021/05/01 11:59:15;;;;;;;20.23;12.57;;;896.70;742.40;;;;;;5049695;28;20013;-79
2021/05/01 12:02:02;;;;;;;35.85;24.88;;;921.70;742.40;;;;;;5051887;28;20366;-80
2021/05/01 12:04:50;;;;;;;12.52;6.47;;;921.60;742.40;;;;;;5050475;28;20499;-80
2021/05/01 12:07:24;;;;;;;20.73;15.93;;;896.30;742.40;;;;;;5050793;28;20028;-80
2021/05/01 12:09:52;;;;;;;26.95;18.52;;;896.40;716.80;;;;;;5049408;28;20495;-80
2021/05/01 12:12:20;;;;;;;18.63;8.85;;;896.90;716.80;;;;;;5072239;28;20055;-80
2021/05/01 12:14:47;;;;;;;21.13;12.10;;;921.70;742.40;;;;;;5042377;28;20167;-77